createdAt,value
2023-04-08T00:00:48.809Z,102054.44
2023-04-08T00:03:16.479Z,102060.25
2023-04-08T00:05:43.508Z,102070.50
2023-04-08T00:08:10.397Z,102061.50
2023-04-08T00:10:37.312Z,102066.31
2023-04-08T00:13:04.188Z,102075.03
2023-04-08T00:15:31.113Z,102079.34
2023-04-08T00:17:58.325Z,102075.72
2023-04-08T00:20:25.445Z,102083.34
2023-04-08T00:22:52.554Z,102083.25
2023-04-08T00:25:19.507Z,102086.31
2023-04-08T00:27:46.442Z,102088.84
2023-04-08T00:30:13.345Z,102088.69
2023-04-08T00:32:40.239Z,102099.91
2023-04-08T00:35:07.709Z,102099.78
2023-04-08T00:37:35.119Z,102092.88
2023-04-08T00:40:02.112Z,102089.28
2023-04-08T00:42:30.813Z,102085.75
2023-04-08T00:44:58.245Z,102098.69
2023-04-08T00:47:25.825Z,102096.16
2023-04-08T00:49:53.255Z,102087.59
2023-04-08T00:52:20.264Z,102094.47
2023-04-08T00:54:47.183Z,102097.94
2023-04-08T00:57:14.261Z,102095.47
2023-04-08T00:59:42.567Z,102090.28
2023-04-08T01:02:32.003Z,102091.25
2023-04-08T01:05:07.528Z,102083.69
2023-04-08T01:07:44.790Z,102090.72
2023-04-08T01:10:28.010Z,102096.78
2023-04-08T01:12:58.400Z,102085.56
2023-04-08T01:15:28.145Z,102100.84
2023-04-08T01:17:57.453Z,102100.41
2023-04-08T01:20:26.367Z,102096.66
2023-04-08T01:23:52.363Z,102096.38
2023-04-08T01:26:25.979Z,102113.72
2023-04-08T01:29:01.074Z,102114.84
2023-04-08T01:31:28.515Z,102119.19
2023-04-08T01:34:00.730Z,102118.22
2023-04-08T01:36:29.710Z,102118.91
2023-04-08T01:38:56.908Z,102114.47
2023-04-08T01:41:24.179Z,102130.00
2023-04-08T01:43:53.137Z,102118.84
2023-04-08T01:46:21.662Z,102117.16
2023-04-08T01:48:50.051Z,102122.41
2023-04-08T01:51:17.598Z,102115.94
2023-04-08T01:53:44.487Z,102116.63
2023-04-08T01:56:14.154Z,102125.06
2023-04-08T01:58:52.730Z,102124.13
2023-04-08T02:01:23.793Z,102137.19
2023-04-08T02:03:55.575Z,102126.97
2023-04-08T02:06:25.778Z,102121.88
2023-04-08T02:08:53.590Z,102120.91
2023-04-08T02:11:21.856Z,102130.25
2023-04-08T02:13:49.225Z,102120.34
2023-04-08T02:16:31.337Z,102129.28
2023-04-08T02:19:12.103Z,102134.59
2023-04-08T02:21:46.989Z,102131.25
2023-04-08T02:24:15.509Z,102126.16
2023-04-08T02:26:44.334Z,102125.47
2023-04-08T02:29:15.753Z,102132.25
2023-04-08T02:31:44.174Z,102123.41
2023-04-08T02:34:12.038Z,102117.97
2023-04-08T02:36:40.995Z,102122.41
2023-04-08T02:39:07.921Z,102128.34
2023-04-08T02:41:34.985Z,102123.97
2023-04-08T02:44:01.892Z,102123.16
2023-04-08T02:46:30.244Z,102126.53
2023-04-08T02:48:57.138Z,102125.66
2023-04-08T02:51:24.067Z,102134.47
2023-04-08T02:53:51.107Z,102138.06
2023-04-08T02:56:18.073Z,102138.91
2023-04-08T02:58:44.941Z,102142.34
2023-04-08T03:01:11.965Z,102147.63
2023-04-08T03:03:39.384Z,102160.47
2023-04-08T03:06:06.398Z,102149.13
2023-04-08T03:08:33.732Z,102153.38
2023-04-08T03:11:00.817Z,102135.88
2023-04-08T03:13:29.633Z,102147.44
2023-04-08T03:15:56.542Z,102149.25
2023-04-08T03:18:24.444Z,102145.94
2023-04-08T03:20:51.332Z,102154.88
2023-04-08T03:23:18.205Z,102150.03
2023-04-08T03:25:45.325Z,102152.75
2023-04-08T03:28:12.202Z,102152.63
2023-04-08T03:30:39.222Z,102155.97
2023-04-08T03:33:08.129Z,102163.53
2023-04-08T03:35:35.561Z,102146.91
2023-04-08T03:38:02.483Z,102159.06
2023-04-08T03:40:29.373Z,102155.75
2023-04-08T03:42:56.239Z,102155.09
2023-04-08T03:45:23.164Z,102157.59
2023-04-08T03:47:50.104Z,102155.75
2023-04-08T03:50:17.037Z,102153.94
2023-04-08T03:52:43.910Z,102157.38
2023-04-08T03:55:10.815Z,102154.13
2023-04-08T03:57:37.750Z,102148.22
2023-04-08T04:00:05.266Z,102141.31
2023-04-08T04:02:39.288Z,102130.63
2023-04-08T04:05:06.667Z,102137.97
2023-04-08T04:07:33.558Z,102140.72
2023-04-08T04:10:00.555Z,102148.34
2023-04-08T04:12:27.457Z,102161.56
2023-04-08T04:14:54.386Z,102179.69
2023-04-08T04:17:21.248Z,102174.56
2023-04-08T04:19:48.122Z,102174.63
2023-04-08T04:22:15.060Z,102171.22
2023-04-08T04:24:41.955Z,102178.97
2023-04-08T04:27:08.831Z,102184.03
2023-04-08T04:29:35.823Z,102179.41
2023-04-08T04:32:02.733Z,102185.19
2023-04-08T04:34:29.643Z,102190.16
2023-04-08T04:36:56.678Z,102177.97
2023-04-08T04:39:23.624Z,102191.88
2023-04-08T04:41:50.830Z,102189.16
2023-04-08T04:44:17.737Z,102199.75
2023-04-08T04:46:44.705Z,102196.16
2023-04-08T04:49:11.671Z,102196.94
2023-04-08T04:51:38.571Z,102202.97
2023-04-08T04:54:05.488Z,102208.13
2023-04-08T04:56:32.369Z,102208.25
2023-04-08T04:58:59.250Z,102211.16
2023-04-08T05:01:26.445Z,102206.09
2023-04-08T05:03:53.398Z,102214.09
2023-04-08T05:06:20.336Z,102210.00
2023-04-08T05:08:47.297Z,102214.47
2023-04-08T05:11:14.245Z,102216.19
2023-04-08T05:13:41.659Z,102225.72
2023-04-08T05:16:08.660Z,102224.06
2023-04-08T05:18:35.565Z,102219.47
2023-04-08T05:21:03.077Z,102226.75
2023-04-08T05:23:29.981Z,102226.06
2023-04-08T05:25:57.068Z,102232.38
2023-04-08T05:28:23.954Z,102227.63
2023-04-08T05:30:51.571Z,102226.19
2023-04-08T05:33:19.000Z,102224.81
2023-04-08T05:35:46.632Z,102226.66
2023-04-08T05:38:13.560Z,102233.00
2023-04-08T05:40:40.497Z,102229.25
2023-04-08T05:43:07.400Z,102224.91
2023-04-08T05:45:34.290Z,102230.75
2023-04-08T05:48:01.204Z,102237.47
2023-04-08T05:50:28.126Z,102225.44
2023-04-08T05:52:55.022Z,102232.59
2023-04-08T05:55:22.140Z,102239.47
2023-04-08T05:57:49.009Z,102240.28
2023-04-08T06:00:16.939Z,102246.09
2023-04-08T06:02:44.065Z,102251.19
2023-04-08T06:05:11.172Z,102257.88
2023-04-08T06:07:38.048Z,102255.97
2023-04-08T06:10:07.108Z,102261.06
2023-04-08T06:12:37.430Z,102261.03
2023-04-08T06:15:05.944Z,102262.78
2023-04-08T06:17:32.852Z,102289.78
2023-04-08T06:20:01.886Z,102270.78
2023-04-08T06:22:29.482Z,102272.31
2023-04-08T06:24:56.566Z,102288.03
2023-04-08T06:27:23.480Z,102280.38
2023-04-08T06:29:50.875Z,102283.09
2023-04-08T06:32:17.859Z,102282.34
2023-04-08T06:34:46.039Z,102295.50
2023-04-08T06:37:13.000Z,102291.28
2023-04-08T06:39:39.925Z,102295.50
2023-04-08T06:42:06.838Z,102299.59
2023-04-08T06:44:53.335Z,102302.09
2023-04-08T06:47:20.272Z,102311.50
2023-04-08T06:49:47.437Z,102304.56
2023-04-08T06:52:15.219Z,102306.41
2023-04-08T06:54:42.273Z,102310.91
2023-04-08T06:57:09.482Z,102311.94
2023-04-08T06:59:36.439Z,102314.59
2023-04-08T07:02:03.647Z,102317.19
2023-04-08T07:04:30.805Z,102326.63
2023-04-08T07:06:57.873Z,102321.19
2023-04-08T07:09:24.776Z,102330.88
2023-04-08T07:11:51.692Z,102329.72
2023-04-08T07:14:19.627Z,102325.72
2023-04-08T07:16:46.630Z,102334.50
2023-04-08T07:19:13.593Z,102336.31
2023-04-08T07:21:40.482Z,102332.19
2023-04-08T07:24:07.500Z,102343.47
2023-04-08T07:26:34.373Z,102337.38
2023-04-08T07:29:01.273Z,102337.50
2023-04-08T07:31:28.257Z,102334.38
2023-04-08T07:33:55.314Z,102338.16
2023-04-08T07:36:22.268Z,102341.00
2023-04-08T07:38:49.360Z,102343.56
2023-04-08T07:41:16.479Z,102350.78
2023-04-08T07:43:43.464Z,102349.00
2023-04-08T07:46:10.485Z,102358.34
2023-04-08T07:48:37.439Z,102358.34
2023-04-08T07:51:10.999Z,102347.72
2023-04-08T07:53:40.372Z,102352.13
2023-04-08T07:56:15.670Z,102353.09
2023-04-08T07:58:43.071Z,102352.97
2023-04-08T08:01:22.096Z,102351.25
2023-04-08T08:03:51.270Z,102353.97
2023-04-08T08:06:18.875Z,102338.25
2023-04-08T08:08:45.861Z,102363.25
2023-04-08T08:11:13.050Z,102363.59
2023-04-08T08:13:39.976Z,102362.94
2023-04-08T08:16:09.193Z,102352.56
2023-04-08T08:18:36.901Z,102362.28
2023-04-08T08:21:04.111Z,102356.41
2023-04-08T08:23:31.081Z,102356.53
2023-04-08T08:26:03.062Z,102347.22
2023-04-08T08:28:29.965Z,102355.69
2023-04-08T08:30:57.276Z,102362.13
2023-04-08T08:33:25.513Z,102357.94
2023-04-08T08:35:52.612Z,102351.66
2023-04-08T08:38:19.535Z,102358.91
2023-04-08T08:40:46.529Z,102351.22
2023-04-08T08:43:14.491Z,102369.97
2023-04-08T08:45:42.247Z,102375.25
2023-04-08T08:48:09.573Z,102353.22
2023-04-08T08:50:36.513Z,102370.97
2023-04-08T08:53:03.659Z,102340.09
2023-04-08T08:55:53.062Z,102370.28
2023-04-08T08:58:20.744Z,102378.84
2023-04-08T09:00:47.666Z,102375.28
2023-04-08T09:03:16.733Z,102372.69
2023-04-08T09:06:01.275Z,102385.16
2023-04-08T09:08:28.064Z,102380.22
2023-04-08T09:10:56.333Z,102383.75
2023-04-08T09:13:24.783Z,102385.50
2023-04-08T09:16:04.009Z,102387.91
2023-04-08T09:18:32.394Z,102398.50
2023-04-08T09:21:04.160Z,102400.88
2023-04-08T09:23:49.869Z,102401.56
2023-04-08T09:26:22.209Z,102398.72
2023-04-08T09:29:25.388Z,102394.47
2023-04-08T09:32:00.468Z,102398.06
2023-04-08T09:34:29.694Z,102403.50
2023-04-08T09:36:56.894Z,102408.31
2023-04-08T09:39:24.163Z,102408.78
2023-04-08T09:41:52.787Z,102410.75
2023-04-08T09:44:24.707Z,102415.94
2023-04-08T09:46:51.688Z,102420.44
2023-04-08T09:49:46.940Z,102414.88
2023-04-08T09:52:21.853Z,102408.41
2023-04-08T09:55:00.621Z,102417.34
2023-04-08T09:57:51.121Z,102420.13
2023-04-08T10:00:19.224Z,102418.19
2023-04-08T10:03:20.439Z,102420.47
2023-04-08T10:05:48.819Z,102429.19
2023-04-08T10:08:16.395Z,102427.56
2023-04-08T10:10:44.074Z,102429.47
2023-04-08T10:13:11.637Z,102427.81
2023-04-08T10:15:40.871Z,102422.56
2023-04-08T10:18:31.255Z,102433.47
2023-04-08T10:20:58.130Z,102426.84
2023-04-08T10:23:56.959Z,102433.03
2023-04-08T10:26:36.746Z,102427.91
2023-04-08T10:29:30.855Z,102425.91
2023-04-08T10:31:57.929Z,102425.06
2023-04-08T10:34:27.412Z,102415.16
2023-04-08T10:36:56.855Z,102432.41
2023-04-08T10:39:25.965Z,102424.47
2023-04-08T10:41:52.939Z,102428.63
2023-04-08T10:44:26.190Z,102427.75
2023-04-08T10:46:54.209Z,102420.63
2023-04-08T10:49:22.108Z,102427.88
2023-04-08T10:51:49.351Z,102414.34
2023-04-08T10:54:18.436Z,102421.47
2023-04-08T10:56:53.562Z,102430.50
2023-04-08T10:59:32.771Z,102424.09
2023-04-08T11:02:01.239Z,102422.00
2023-04-08T11:04:28.739Z,102430.25
2023-04-08T11:06:55.729Z,102424.28
2023-04-08T11:09:22.620Z,102418.91
2023-04-08T11:11:49.510Z,102423.94
2023-04-08T11:14:19.679Z,102424.53
2023-04-08T11:16:46.592Z,102422.84
2023-04-08T11:19:14.294Z,102422.22
2023-04-08T11:21:41.510Z,102423.50
2023-04-08T11:24:12.434Z,102427.25
2023-04-08T11:26:40.518Z,102433.59
2023-04-08T11:29:14.187Z,102428.88
2023-04-08T11:31:42.893Z,102431.78
2023-04-08T11:34:09.966Z,102427.63
2023-04-08T11:36:36.966Z,102422.41
2023-04-08T11:39:09.088Z,102426.91
2023-04-08T11:41:43.270Z,102428.84
2023-04-08T11:44:10.370Z,102435.03
2023-04-08T11:46:37.816Z,102428.91
2023-04-08T11:49:09.979Z,102427.31
2023-04-08T11:51:56.469Z,102428.59
2023-04-08T11:54:31.958Z,102430.47
2023-04-08T11:56:59.915Z,102429.69
2023-04-08T11:59:28.901Z,102422.50
2023-04-08T12:01:56.383Z,102431.19
2023-04-08T12:04:23.506Z,102426.00
2023-04-08T12:06:50.712Z,102435.81
2023-04-08T12:09:17.612Z,102430.72
2023-04-08T12:11:44.552Z,102440.44
2023-04-08T12:14:11.432Z,102435.25
2023-04-08T12:16:38.496Z,102446.78
2023-04-08T12:19:05.426Z,102448.53
2023-04-08T12:21:33.877Z,102442.47
2023-04-08T12:24:01.677Z,102450.50
2023-04-08T12:26:28.605Z,102446.25
2023-04-08T12:28:55.523Z,102434.78
2023-04-08T12:31:23.119Z,102447.31
2023-04-08T12:33:50.470Z,102454.06
2023-04-08T12:36:17.630Z,102457.31
2023-04-08T12:38:44.615Z,102461.66
2023-04-08T12:41:11.500Z,102454.69
2023-04-08T12:43:39.126Z,102458.16
2023-04-08T12:46:06.391Z,102457.28
2023-04-08T12:48:33.296Z,102454.75
2023-04-08T12:51:00.252Z,102451.22
2023-04-08T12:53:27.145Z,102466.03
2023-04-08T12:55:57.147Z,102448.63
2023-04-08T12:58:25.612Z,102460.06
2023-04-08T13:00:52.527Z,102460.81
2023-04-08T13:03:19.518Z,102456.22
2023-04-08T13:05:46.853Z,102451.69
2023-04-08T13:08:13.745Z,102452.53
2023-04-08T13:10:42.511Z,102455.19
2023-04-08T13:13:09.474Z,102445.34
2023-04-08T13:15:36.920Z,102450.47
2023-04-08T13:18:04.706Z,102458.13
2023-04-08T13:20:31.645Z,102458.13
2023-04-08T13:22:58.533Z,102458.09
2023-04-08T13:25:25.563Z,102455.50
2023-04-08T13:27:52.604Z,102451.25
2023-04-08T13:30:19.564Z,102453.13
2023-04-08T13:32:46.532Z,102454.97
2023-04-08T13:35:13.462Z,102459.38
2023-04-08T13:37:40.323Z,102459.47
2023-04-08T13:40:08.747Z,102455.03
2023-04-08T13:42:35.826Z,102451.94
2023-04-08T13:45:02.796Z,102461.34
2023-04-08T13:47:29.745Z,102463.94
2023-04-08T13:49:56.646Z,102466.63
2023-04-08T13:52:23.506Z,102464.28
2023-04-08T13:54:50.429Z,102463.44
2023-04-08T13:57:17.340Z,102463.44
2023-04-08T13:59:44.889Z,102460.81
2023-04-08T14:02:12.894Z,102466.00
2023-04-08T14:04:40.271Z,102464.13
2023-04-08T14:07:07.333Z,102464.84
2023-04-08T14:09:34.318Z,102460.41
2023-04-08T14:12:01.253Z,102461.13
2023-04-08T14:14:28.291Z,102461.03
2023-04-08T14:16:55.298Z,102459.22
2023-04-08T14:19:22.276Z,102461.75
2023-04-08T14:21:49.237Z,102467.91
2023-04-08T14:24:16.311Z,102459.94
2023-04-08T14:26:43.274Z,102455.75
2023-04-08T14:29:10.237Z,102462.59
2023-04-08T14:31:37.289Z,102452.91
2023-04-08T14:34:04.487Z,102450.41
2023-04-08T14:36:31.678Z,102458.50
2023-04-08T14:38:59.459Z,102461.19
2023-04-08T14:41:27.134Z,102462.22
2023-04-08T14:43:54.062Z,102469.31
2023-04-08T14:46:21.707Z,102467.63
2023-04-08T14:48:48.980Z,102462.38
2023-04-08T14:51:16.027Z,102458.13
2023-04-08T14:53:42.948Z,102456.38
2023-04-08T14:56:10.147Z,102449.53
2023-04-08T14:58:37.092Z,102454.81
2023-04-08T15:01:04.536Z,102450.41
2023-04-08T15:03:31.674Z,102452.91
2023-04-08T15:05:59.695Z,102452.03
2023-04-08T15:08:26.742Z,102448.66
2023-04-08T15:10:53.639Z,102433.03
2023-04-08T15:13:20.551Z,102447.31
2023-04-08T15:15:47.469Z,102428.69
2023-04-08T15:18:14.392Z,102447.94
2023-04-08T15:20:41.855Z,102445.41
2023-04-08T15:23:08.865Z,102441.78
2023-04-08T15:25:35.839Z,102449.44
2023-04-08T15:28:02.834Z,102440.94
2023-04-08T15:30:35.052Z,102453.94
2023-04-08T15:33:05.239Z,102451.31
2023-04-08T15:35:33.078Z,102450.28
2023-04-08T15:38:00.794Z,102445.97
2023-04-08T15:40:28.117Z,102447.78
2023-04-08T15:42:55.062Z,102447.00
2023-04-08T15:45:22.241Z,102455.84
2023-04-08T15:47:49.224Z,102453.22
2023-04-08T15:50:17.289Z,102454.81
2023-04-08T15:52:44.563Z,102454.56
2023-04-08T15:55:11.807Z,102455.53
2023-04-08T15:57:38.792Z,102451.94
2023-04-08T16:00:10.859Z,102454.56
2023-04-08T16:02:40.919Z,102455.50
2023-04-08T16:05:09.117Z,102455.63
2023-04-08T16:07:36.224Z,102451.34
2023-04-08T16:10:03.264Z,102440.66
2023-04-08T16:12:30.365Z,102458.22
2023-04-08T16:14:57.247Z,102466.19
2023-04-08T16:17:24.262Z,102464.59
2023-04-08T16:19:51.830Z,102469.03
2023-04-08T16:22:18.937Z,102461.13
2023-04-08T16:24:46.169Z,102467.44
2023-04-08T16:27:13.046Z,102466.59
2023-04-08T16:29:39.939Z,102454.91
2023-04-08T16:32:07.226Z,102474.25
2023-04-08T16:34:34.578Z,102463.66
2023-04-08T16:37:01.464Z,102463.31
2023-04-08T16:39:28.599Z,102473.19
2023-04-08T16:41:55.498Z,102467.88
2023-04-08T16:44:22.794Z,102460.53
2023-04-08T16:46:49.688Z,102472.59
2023-04-08T16:49:18.262Z,102468.00
2023-04-08T16:51:45.389Z,102478.22
2023-04-08T16:54:12.354Z,102477.34
2023-04-08T16:56:44.213Z,102478.25
2023-04-08T16:59:12.251Z,102468.75
2023-04-08T17:01:39.221Z,102477.63
2023-04-08T17:04:06.284Z,102480.31
2023-04-08T17:06:35.653Z,102476.75
2023-04-08T17:09:03.950Z,102480.09
2023-04-08T17:11:31.132Z,102483.44
2023-04-08T17:13:58.110Z,102493.06
2023-04-08T17:16:25.375Z,102495.78
2023-04-08T17:18:52.437Z,102500.13
2023-04-08T17:21:20.159Z,102499.25
2023-04-08T17:23:47.126Z,102496.47
2023-04-08T17:26:14.006Z,102504.34
2023-04-08T17:28:40.892Z,102514.59
2023-04-08T17:31:07.799Z,102505.91
2023-04-08T17:33:34.696Z,102513.00
2023-04-08T17:36:01.646Z,102509.50
2023-04-08T17:38:28.926Z,102514.88
2023-04-08T17:40:55.817Z,102513.94
2023-04-08T17:43:22.699Z,102517.38
2023-04-08T17:45:50.505Z,102513.94
2023-04-08T17:48:18.686Z,102521.81
2023-04-08T17:50:45.582Z,102533.84
2023-04-08T17:53:12.444Z,102531.78
2023-04-08T17:55:39.374Z,102534.22
2023-04-08T17:58:06.291Z,102532.28
2023-04-08T18:00:33.178Z,102531.94
2023-04-08T18:03:00.230Z,102541.25
2023-04-08T18:05:27.305Z,102542.66
2023-04-08T18:07:54.187Z,102542.63
2023-04-08T18:10:22.996Z,102548.00
2023-04-08T18:12:50.819Z,102551.31
2023-04-08T18:15:21.990Z,102554.50
2023-04-08T18:17:48.940Z,102561.13
2023-04-08T18:20:16.046Z,102568.53
2023-04-08T18:22:43.065Z,102567.25
2023-04-08T18:25:10.157Z,102561.88
2023-04-08T18:27:37.053Z,102565.22
2023-04-08T18:30:04.293Z,102562.38
2023-04-08T18:32:31.200Z,102559.53
2023-04-08T18:34:58.090Z,102571.28
2023-04-08T18:37:25.077Z,102571.19
2023-04-08T18:39:52.000Z,102567.72
2023-04-08T18:42:18.951Z,102569.56
2023-04-08T18:44:46.065Z,102577.44
2023-04-08T18:47:13.118Z,102580.03
2023-04-08T18:49:40.071Z,102573.13
2023-04-08T18:52:08.296Z,102574.84
2023-04-08T18:54:35.787Z,102562.34
2023-04-08T18:57:02.957Z,102584.91
2023-04-08T18:59:30.324Z,102574.56
2023-04-08T19:01:57.637Z,102564.88
2023-04-08T19:04:24.836Z,102579.91
2023-04-08T19:06:51.769Z,102572.81
2023-04-08T19:09:19.210Z,102573.50
2023-04-08T19:11:46.146Z,102572.63
2023-04-08T19:14:13.079Z,102576.09
2023-04-08T19:16:41.651Z,102574.13
2023-04-08T19:19:08.991Z,102580.22
2023-04-08T19:21:37.698Z,102578.53
2023-04-08T19:24:06.363Z,102570.59
2023-04-08T19:26:33.787Z,102575.78
2023-04-08T19:29:01.224Z,102568.75
2023-04-08T19:31:28.271Z,102580.97
2023-04-08T19:33:55.333Z,102578.25
2023-04-08T19:36:22.227Z,102575.66
2023-04-08T19:38:49.127Z,102569.78
2023-04-08T19:41:16.046Z,102571.50
2023-04-08T19:43:42.931Z,102574.22
2023-04-08T19:46:09.830Z,102574.31
2023-04-08T19:48:36.738Z,102576.25
2023-04-08T19:51:03.738Z,102571.19
2023-04-08T19:53:30.775Z,102576.66
2023-04-08T19:56:02.019Z,102571.34
2023-04-08T19:58:29.012Z,102571.19
2023-04-08T20:00:56.946Z,102573.44
2023-04-08T20:03:24.078Z,102568.59
2023-04-08T20:05:51.110Z,102575.09
2023-04-08T20:08:18.012Z,102569.50
2023-04-08T20:10:45.004Z,102573.53
2023-04-08T20:13:11.937Z,102576.91
2023-04-08T20:15:38.795Z,102572.75
2023-04-08T20:18:05.682Z,102573.75
2023-04-08T20:20:32.660Z,102576.53
2023-04-08T20:22:59.571Z,102581.19
2023-04-08T20:25:26.584Z,102578.03
2023-04-08T20:27:53.533Z,102580.72
2023-04-08T20:30:20.397Z,102584.28
2023-04-08T20:32:47.312Z,102583.53
2023-04-08T20:35:14.312Z,102579.22
2023-04-08T20:37:41.860Z,102573.06
2023-04-08T20:40:09.405Z,102576.53
2023-04-08T20:42:36.495Z,102576.69
2023-04-08T20:45:03.767Z,102583.75
2023-04-08T20:47:30.746Z,102571.84
2023-04-08T20:49:57.667Z,102576.41
2023-04-08T20:52:24.533Z,102576.66
2023-04-08T20:54:51.423Z,102575.06
2023-04-08T20:57:18.342Z,102581.28
2023-04-08T20:59:45.300Z,102583.94
2023-04-08T21:02:12.245Z,102571.78
2023-04-08T21:04:39.808Z,102587.19
2023-04-08T21:07:06.676Z,102586.88
2023-04-08T21:09:33.595Z,102585.69
2023-04-08T21:12:01.237Z,102581.06
2023-04-08T21:14:30.961Z,102586.25
2023-04-08T21:16:58.422Z,102580.09
2023-04-08T21:19:25.339Z,102584.22
2023-04-08T21:21:52.219Z,102586.63
2023-04-08T21:24:19.103Z,102575.09
2023-04-08T21:26:46.004Z,102585.28
2023-04-08T21:29:12.934Z,102575.78
2023-04-08T21:31:40.952Z,102582.81
2023-04-08T21:34:08.371Z,102589.84
2023-04-08T21:36:35.269Z,102584.84
2023-04-08T21:39:02.319Z,102594.41
2023-04-08T21:41:30.577Z,102591.03
2023-04-08T21:43:57.746Z,102598.03
2023-04-08T21:46:24.713Z,102597.28
2023-04-08T21:48:52.092Z,102600.13
2023-04-08T21:51:19.271Z,102593.34
2023-04-08T21:53:46.283Z,102596.06
2023-04-08T21:56:13.990Z,102597.84
2023-04-08T21:58:41.098Z,102596.94
2023-04-08T22:01:08.144Z,102596.13
2023-04-08T22:03:35.233Z,102588.41
2023-04-08T22:06:02.184Z,102598.16
2023-04-08T22:08:29.086Z,102594.88
2023-04-08T22:10:56.013Z,102592.25
2023-04-08T22:13:22.919Z,102597.19
2023-04-08T22:15:49.782Z,102602.91
2023-04-08T22:18:16.666Z,102593.16
2023-04-08T22:20:43.542Z,102597.47
2023-04-08T22:23:10.435Z,102597.31
2023-04-08T22:25:37.300Z,102595.44
2023-04-08T22:28:04.204Z,102598.84
2023-04-08T22:30:31.176Z,102598.09
2023-04-08T22:32:58.239Z,102600.88
2023-04-08T22:35:25.167Z,102601.97
2023-04-08T22:37:52.166Z,102597.84
2023-04-08T22:40:19.060Z,102592.00
2023-04-08T22:42:45.929Z,102587.91
2023-04-08T22:45:12.796Z,102582.06
2023-04-08T22:47:39.726Z,102581.28
2023-04-08T22:50:07.179Z,102580.56
2023-04-08T22:52:34.064Z,102583.25
2023-04-08T22:55:00.974Z,102587.59
2023-04-08T22:57:27.947Z,102584.13
2023-04-08T22:59:54.818Z,102585.91
2023-04-08T23:02:21.865Z,102578.72
2023-04-08T23:04:53.430Z,102584.47
2023-04-08T23:07:20.383Z,102585.09
2023-04-08T23:09:47.256Z,102587.72
2023-04-08T23:12:14.230Z,102591.19
2023-04-08T23:14:41.097Z,102596.56
2023-04-08T23:17:07.983Z,102582.75
2023-04-08T23:19:34.850Z,102582.84
2023-04-08T23:22:01.737Z,102581.28
2023-04-08T23:24:28.618Z,102578.72
2023-04-08T23:26:56.240Z,102584.00
2023-04-08T23:29:23.203Z,102583.16
2023-04-08T23:31:50.198Z,102583.31
2023-04-08T23:34:17.061Z,102585.06
2023-04-08T23:36:43.964Z,102584.19
2023-04-08T23:39:10.945Z,102586.69
2023-04-08T23:41:37.821Z,102578.56
2023-04-08T23:44:04.747Z,102582.50
2023-04-08T23:46:31.706Z,102579.53
2023-04-08T23:48:58.591Z,102586.16
2023-04-08T23:51:26.566Z,102575.47
2023-04-08T23:53:53.444Z,102573.59
2023-04-08T23:56:20.641Z,102567.00
2023-04-08T23:58:47.511Z,102569.72
